sensor_id;sensor_type;location;lat;lon;timestamp;pressure;altitude;pressure_sealevel;temperature;humidity
24858;BME280;12935;50.782;6.074;2023-04-08T00:00:39;100051.53;;;7.40;100.00
24858;BME280;12935;50.782;6.074;2023-04-08T00:03:05;100074.72;;;7.53;100.00
24858;BME280;12935;50.782;6.074;2023-04-08T00:05:30;100066.00;;;7.44;100.00
24858;BME280;12935;50.782;6.074;2023-04-08T00:07:55;100071.44;;;7.44;100.00
24858;BME280;12935;50.782;6.074;2023-04-08T00:10:20;100075.72;;;7.45;100.00
24858;BME280;12935;50.782;6.074;2023-04-08T00:12:47;100075.38;;;7.47;100.00
24858;BME280;12935;50.782;6.074;2023-04-08T00:15:12;100074.50;;;7.43;100.00
24858;BME280;12935;50.782;6.074;2023-04-08T00:17:37;100071.34;;;7.40;100.00
24858;BME280;12935;50.782;6.074;2023-04-08T00:20:03;100070.56;;;7.40;100.00
24858;BME280;12935;50.782;6.074;2023-04-08T00:22:29;100067.09;;;7.39;100.00
24858;BME280;12935;50.782;6.074;2023-04-08T00:24:56;100065.06;;;7.36;100.00
24858;BME280;12935;50.782;6.074;2023-04-08T00:27:21;100068.28;;;7.42;100.00
24858;BME280;12935;50.782;6.074;2023-04-08T00:29:49;100074.16;;;7.44;100.00
24858;BME280;12935;50.782;6.074;2023-04-08T00:32:14;100071.06;;;7.46;100.00
24858;BME280;12935;50.782;6.074;2023-04-08T00:34:40;100070.63;;;7.44;100.00
24858;BME280;12935;50.782;6.074;2023-04-08T00:37:05;100071.34;;;7.40;100.00
24858;BME280;12935;50.782;6.074;2023-04-08T00:39:30;100072.13;;;7.41;100.00
24858;BME280;12935;50.782;6.074;2023-04-08T00:41:56;100068.50;;;7.33;100.00
24858;BME280;12935;50.782;6.074;2023-04-08T00:44:21;100069.72;;;7.36;100.00
24858;BME280;12935;50.782;6.074;2023-04-08T00:46:47;100066.06;;;7.28;100.00
24858;BME280;12935;50.782;6.074;2023-04-08T00:49:12;100068.94;;;7.35;100.00
24858;BME280;12935;50.782;6.074;2023-04-08T00:51:38;100078.22;;;7.34;100.00
24858;BME280;12935;50.782;6.074;2023-04-08T00:54:03;100068.59;;;7.37;100.00
24858;BME280;12935;50.782;6.074;2023-04-08T00:56:31;100071.66;;;7.35;100.00
24858;BME280;12935;50.782;6.074;2023-04-08T00:58:58;100077.09;;;7.35;100.00
24858;BME280;12935;50.782;6.074;2023-04-08T01:01:39;100074.03;;;7.37;100.00
24858;BME280;12935;50.782;6.074;2023-04-08T01:04:16;100078.72;;;7.40;100.00
24858;BME280;12935;50.782;6.074;2023-04-08T01:06:49;100079.50;;;7.40;100.00
24858;BME280;12935;50.782;6.074;2023-04-08T01:09:18;100070.94;;;7.38;100.00
24858;BME280;12935;50.782;6.074;2023-04-08T01:11:48;100061.13;;;7.34;100.00
24858;BME280;12935;50.782;6.074;2023-04-08T01:14:17;100071.31;;;7.37;100.00
24858;BME280;12935;50.782;6.074;2023-04-08T01:16:44;100066.84;;;7.29;100.00
24858;BME280;12935;50.782;6.074;2023-04-08T01:19:17;100070.72;;;7.28;100.00
24858;BME280;12935;50.782;6.074;2023-04-08T01:21:46;100071.00;;;7.23;100.00
24858;BME280;12935;50.782;6.074;2023-04-08T01:24:17;100068.56;;;7.18;100.00
24858;BME280;12935;50.782;6.074;2023-04-08T01:26:44;100067.16;;;7.24;100.00
24858;BME280;12935;50.782;6.074;2023-04-08T01:29:11;100074.53;;;7.23;100.00
24858;BME280;12935;50.782;6.074;2023-04-08T01:31:38;100075.31;;;7.24;100.00
24858;BME280;12935;50.782;6.074;2023-04-08T01:34:06;100074.22;;;7.28;100.00
24858;BME280;12935;50.782;6.074;2023-04-08T01:36:32;100072.22;;;7.25;100.00
24858;BME280;12935;50.782;6.074;2023-04-08T01:39:01;100074.38;;;7.35;100.00
24858;BME280;12935;50.782;6.074;2023-04-08T01:41:28;100077.44;;;7.34;100.00
24858;BME280;12935;50.782;6.074;2023-04-08T01:43:54;100079.16;;;7.42;100.00
24858;BME280;12935;50.782;6.074;2023-04-08T01:46:20;100079.81;;;7.55;100.00
24858;BME280;12935;50.782;6.074;2023-04-08T01:48:46;100078.72;;;7.40;100.00
24858;BME280;12935;50.782;6.074;2023-04-08T01:51:13;100088.25;;;7.50;100.00
24858;BME280;12935;50.782;6.074;2023-04-08T01:53:39;100083.44;;;7.43;100.00
24858;BME280;12935;50.782;6.074;2023-04-08T01:56:06;100086.25;;;7.47;100.00
24858;BME280;12935;50.782;6.074;2023-04-08T01:58:41;100084.03;;;7.33;100.00
24858;BME280;12935;50.782;6.074;2023-04-08T02:01:10;100085.81;;;7.25;100.00
24858;BME280;12935;50.782;6.074;2023-04-08T02:03:37;100085.00;;;7.25;100.00
24858;BME280;12935;50.782;6.074;2023-04-08T02:06:04;100077.66;;;7.25;100.00
24858;BME280;12935;50.782;6.074;2023-04-08T02:08:29;100090.16;;;7.30;100.00
24858;BME280;12935;50.782;6.074;2023-04-08T02:10:55;100092.25;;;7.36;100.00
24858;BME280;12935;50.782;6.074;2023-04-08T02:13:20;100084.94;;;7.40;100.00
24858;BME280;12935;50.782;6.074;2023-04-08T02:15:56;100087.63;;;7.37;100.00
24858;BME280;12935;50.782;6.074;2023-04-08T02:18:24;100085.72;;;7.41;100.00
24858;BME280;12935;50.782;6.074;2023-04-08T02:21:12;100088.53;;;7.45;100.00
24858;BME280;12935;50.782;6.074;2023-04-08T02:23:40;100093.97;;;7.45;100.00
24858;BME280;12935;50.782;6.074;2023-04-08T02:26:12;100095.41;;;7.38;100.00
24858;BME280;12935;50.782;6.074;2023-04-08T02:28:39;100095.78;;;7.37;100.00
24858;BME280;12935;50.782;6.074;2023-04-08T02:31:08;100089.53;;;7.36;100.00
24858;BME280;12935;50.782;6.074;2023-04-08T02:33:34;100102.03;;;7.41;100.00
24858;BME280;12935;50.782;6.074;2023-04-08T02:36:02;100101.19;;;7.56;100.00
24858;BME280;12935;50.782;6.074;2023-04-08T02:38:29;100101.78;;;7.46;100.00
24858;BME280;12935;50.782;6.074;2023-04-08T02:40:55;100092.63;;;7.35;100.00
24858;BME280;12935;50.782;6.074;2023-04-08T02:43:21;100096.31;;;7.27;100.00
24858;BME280;12935;50.782;6.074;2023-04-08T02:45:50;100102.97;;;7.29;100.00
24858;BME280;12935;50.782;6.074;2023-04-08T02:48:16;100100.59;;;7.28;100.00
24858;BME280;12935;50.782;6.074;2023-04-08T02:50:41;100100.59;;;7.28;100.00
24858;BME280;12935;50.782;6.074;2023-04-08T02:53:07;100097.09;;;7.27;100.00
24858;BME280;12935;50.782;6.074;2023-04-08T02:55:33;100105.25;;;7.27;100.00
24858;BME280;12935;50.782;6.074;2023-04-08T02:57:58;100106.47;;;7.30;100.00
24858;BME280;12935;50.782;6.074;2023-04-08T03:00:23;100102.06;;;7.22;100.00
24858;BME280;12935;50.782;6.074;2023-04-08T03:02:49;100108.34;;;7.26;100.00
24858;BME280;12935;50.782;6.074;2023-04-08T03:05:14;100105.22;;;7.24;100.00
24858;BME280;12935;50.782;6.074;2023-04-08T03:07:40;100106.75;;;7.25;100.00
24858;BME280;12935;50.782;6.074;2023-04-08T03:10:06;100094.69;;;7.22;100.00
24858;BME280;12935;50.782;6.074;2023-04-08T03:12:32;100100.13;;;7.22;100.00
24858;BME280;12935;50.782;6.074;2023-04-08T03:14:57;100105.22;;;7.24;100.00
24858;BME280;12935;50.782;6.074;2023-04-08T03:17:22;100103.19;;;7.21;100.00
24858;BME280;12935;50.782;6.074;2023-04-08T03:19:47;100100.31;;;7.14;100.00
24858;BME280;12935;50.782;6.074;2023-04-08T03:22:13;100105.84;;;7.17;100.00
24858;BME280;12935;50.782;6.074;2023-04-08T03:24:38;100097.94;;;7.12;100.00
24858;BME280;12935;50.782;6.074;2023-04-08T03:27:05;100102.59;;;7.12;100.00
24858;BME280;12935;50.782;6.074;2023-04-08T03:29:30;100109.59;;;7.13;100.00
24858;BME280;12935;50.782;6.074;2023-04-08T03:31:56;100102.16;;;7.10;100.00
24858;BME280;12935;50.782;6.074;2023-04-08T03:34:21;100106.19;;;7.16;100.00
24858;BME280;12935;50.782;6.074;2023-04-08T03:36:46;100107.69;;;7.13;100.00
24858;BME280;12935;50.782;6.074;2023-04-08T03:39:12;100091.50;;;7.01;100.00
24858;BME280;12935;50.782;6.074;2023-04-08T03:41:37;100119.34;;;7.14;100.00
24858;BME280;12935;50.782;6.074;2023-04-08T03:44:02;100109.59;;;7.13;100.00
24858;BME280;12935;50.782;6.074;2023-04-08T03:46:28;100117.41;;;7.14;100.00
24858;BME280;12935;50.782;6.074;2023-04-08T03:48:53;100111.19;;;7.14;100.00
24858;BME280;12935;50.782;6.074;2023-04-08T03:51:18;100114.78;;;7.18;100.00
24858;BME280;12935;50.782;6.074;2023-04-08T03:53:43;100104.88;;;7.10;100.00
24858;BME280;12935;50.782;6.074;2023-04-08T03:56:09;100107.75;;;7.17;100.00
24858;BME280;12935;50.782;6.074;2023-04-08T03:58:34;100111.03;;;7.26;100.00
24858;BME280;12935;50.782;6.074;2023-04-08T04:00:59;100110.34;;;7.29;100.00
24858;BME280;12935;50.782;6.074;2023-04-08T04:03:25;100105.97;;;7.24;100.00
24858;BME280;12935;50.782;6.074;2023-04-08T04:05:51;100110.00;;;7.30;100.00
24858;BME280;12935;50.782;6.074;2023-04-08T04:08:16;100098.53;;;7.21;100.00
24858;BME280;12935;50.782;6.074;2023-04-08T04:10:41;100102.50;;;7.24;100.00
24858;BME280;12935;50.782;6.074;2023-04-08T04:13:07;100108.28;;;7.22;100.00
24858;BME280;12935;50.782;6.074;2023-04-08T04:15:32;100099.16;;;7.15;100.00
24858;BME280;12935;50.782;6.074;2023-04-08T04:17:57;100106.53;;;7.14;100.00
24858;BME280;12935;50.782;6.074;2023-04-08T04:20:22;100108.28;;;7.22;100.00
24858;BME280;12935;50.782;6.074;2023-04-08T04:22:50;100116.25;;;7.15;100.00
24858;BME280;12935;50.782;6.074;2023-04-08T04:25:15;100112.31;;;7.13;100.00
24858;BME280;12935;50.782;6.074;2023-04-08T04:27:40;100115.13;;;7.16;100.00
24858;BME280;12935;50.782;6.074;2023-04-08T04:30:06;100111.63;;;7.16;100.00
24858;BME280;12935;50.782;6.074;2023-04-08T04:32:33;100119.34;;;7.14;100.00
24858;BME280;12935;50.782;6.074;2023-04-08T04:34:58;100123.53;;;7.11;100.00
24858;BME280;12935;50.782;6.074;2023-04-08T04:37:23;100118.91;;;7.12;100.00
24858;BME280;12935;50.782;6.074;2023-04-08T04:39:50;100126.34;;;7.15;100.00
24858;BME280;12935;50.782;6.074;2023-04-08T04:42:15;100129.50;;;7.17;100.00
24858;BME280;12935;50.782;6.074;2023-04-08T04:44:40;100111.44;;;7.09;100.00
24858;BME280;12935;50.782;6.074;2023-04-08T04:47:06;100122.94;;;7.18;100.00
24858;BME280;12935;50.782;6.074;2023-04-08T04:49:31;100127.56;;;7.17;100.00
24858;BME280;12935;50.782;6.074;2023-04-08T04:51:57;100126.88;;;7.20;100.00
24858;BME280;12935;50.782;6.074;2023-04-08T04:54:22;100130.81;;;7.23;100.00
24858;BME280;12935;50.782;6.074;2023-04-08T04:56:47;100126.94;;;7.24;100.00
24858;BME280;12935;50.782;6.074;2023-04-08T04:59:12;100128.50;;;7.25;100.00
24858;BME280;12935;50.782;6.074;2023-04-08T05:01:38;100133.94;;;7.25;100.00
24858;BME280;12935;50.782;6.074;2023-04-08T05:04:05;100135.69;;;7.33;100.00
24858;BME280;12935;50.782;6.074;2023-04-08T05:06:30;100139.53;;;7.32;100.00
24858;BME280;12935;50.782;6.074;2023-04-08T05:08:56;100143.84;;;7.33;100.00
24858;BME280;12935;50.782;6.074;2023-04-08T05:11:21;100148.03;;;7.30;100.00
24858;BME280;12935;50.782;6.074;2023-04-08T05:13:46;100148.25;;;7.22;100.00
24858;BME280;12935;50.782;6.074;2023-04-08T05:16:12;100147.91;;;7.23;100.00
24858;BME280;12935;50.782;6.074;2023-04-08T05:18:37;100154.13;;;7.24;100.00
24858;BME280;12935;50.782;6.074;2023-04-08T05:21:03;100148.53;;;7.17;100.00
24858;BME280;12935;50.782;6.074;2023-04-08T05:23:28;100147.81;;;7.20;100.00
24858;BME280;12935;50.782;6.074;2023-04-08T05:25:53;100147.81;;;7.20;100.00
24858;BME280;12935;50.782;6.074;2023-04-08T05:28:18;100160.41;;;7.28;100.00
24858;BME280;12935;50.782;6.074;2023-04-08T05:30:48;100147.03;;;7.19;100.00
24858;BME280;12935;50.782;6.074;2023-04-08T05:33:14;100151.41;;;7.24;100.00
24858;BME280;12935;50.782;6.074;2023-04-08T05:35:40;100158.47;;;7.28;100.00
24858;BME280;12935;50.782;6.074;2023-04-08T05:38:05;100158.47;;;7.28;100.00
24858;BME280;12935;50.782;6.074;2023-04-08T05:40:31;100167.50;;;7.32;100.00
24858;BME280;12935;50.782;6.074;2023-04-08T05:42:56;100169.88;;;7.34;100.00
24858;BME280;12935;50.782;6.074;2023-04-08T05:45:22;100173.03;;;7.36;100.00
24858;BME280;12935;50.782;6.074;2023-04-08T05:47:47;100163.91;;;7.28;100.00
24858;BME280;12935;50.782;6.074;2023-04-08T05:50:12;100175.50;;;7.25;100.00
24858;BME280;12935;50.782;6.074;2023-04-08T05:52:43;100177.81;;;7.23;100.00
24858;BME280;12935;50.782;6.074;2023-04-08T05:55:10;100180.44;;;7.20;100.00
24858;BME280;12935;50.782;6.074;2023-04-08T05:57:36;100181.72;;;7.26;100.00
24858;BME280;12935;50.782;6.074;2023-04-08T06:00:02;100177.44;;;7.25;100.00
24858;BME280;12935;50.782;6.074;2023-04-08T06:02:28;100187.50;;;7.24;100.00
24858;BME280;12935;50.782;6.074;2023-04-08T06:04:53;100182.81;;;7.21;100.00
24858;BME280;12935;50.782;6.074;2023-04-08T06:07:18;100179.44;;;7.28;100.00
24858;BME280;12935;50.782;6.074;2023-04-08T06:09:43;100184.59;;;7.33;100.00
24858;BME280;12935;50.782;6.074;2023-04-08T06:12:09;100185.84;;;7.35;100.00
24858;BME280;12935;50.782;6.074;2023-04-08T06:14:34;100179.88;;;7.30;100.00
24858;BME280;12935;50.782;6.074;2023-04-08T06:16:59;100189.00;;;7.37;100.00
24858;BME280;12935;50.782;6.074;2023-04-08T06:19:25;100188.19;;;7.37;100.00
24858;BME280;12935;50.782;6.074;2023-04-08T06:21:50;100192.75;;;7.33;100.00
24858;BME280;12935;50.782;6.074;2023-04-08T06:24:16;100194.00;;;7.35;100.00
24858;BME280;12935;50.782;6.074;2023-04-08T06:26:41;100196.28;;;7.33;100.00
24858;BME280;12935;50.782;6.074;2023-04-08T06:29:07;100193.28;;;7.38;100.00
24858;BME280;12935;50.782;6.074;2023-04-08T06:31:32;100202.63;;;7.41;100.00
24858;BME280;12935;50.782;6.074;2023-04-08T06:33:57;100206.75;;;7.51;100.00
24858;BME280;12935;50.782;6.074;2023-04-08T06:36:23;100208.94;;;7.45;100.00
24858;BME280;12935;50.782;6.074;2023-04-08T06:38:48;100215.97;;;7.46;100.00
24858;BME280;12935;50.782;6.074;2023-04-08T06:41:13;100207.97;;;7.53;100.00
24858;BME280;12935;50.782;6.074;2023-04-08T06:43:38;100213.13;;;7.58;100.00
24858;BME280;12935;50.782;6.074;2023-04-08T06:46:04;100209.97;;;7.56;100.00
24858;BME280;12935;50.782;6.074;2023-04-08T06:48:29;100203.81;;;7.59;100.00
24858;BME280;12935;50.782;6.074;2023-04-08T06:50:55;100215.34;;;7.72;100.00
24858;BME280;12935;50.782;6.074;2023-04-08T06:53:24;100222.88;;;7.79;100.00
24858;BME280;12935;50.782;6.074;2023-04-08T06:55:49;100211.72;;;7.84;100.00
24858;BME280;12935;50.782;6.074;2023-04-08T06:58:15;100223.41;;;7.84;100.00
24858;BME280;12935;50.782;6.074;2023-04-08T07:00:41;100220.47;;;7.93;100.00
24858;BME280;12935;50.782;6.074;2023-04-08T07:03:06;100219.75;;;7.96;100.00
24858;BME280;12935;50.782;6.074;2023-04-08T07:05:31;100237.22;;;7.95;100.00
24858;BME280;12935;50.782;6.074;2023-04-08T07:07:56;100231.34;;;8.12;100.00
24858;BME280;12935;50.782;6.074;2023-04-08T07:10:22;100241.81;;;8.10;100.00
24858;BME280;12935;50.782;6.074;2023-04-08T07:12:47;100238.53;;;8.01;100.00
24858;BME280;12935;50.782;6.074;2023-04-08T07:15:12;100237.72;;;8.00;100.00
24858;BME280;12935;50.782;6.074;2023-04-08T07:17:38;100246.38;;;8.06;100.00
24858;BME280;12935;50.782;6.074;2023-04-08T07:20:04;100244.00;;;8.04;100.00
24858;BME280;12935;50.782;6.074;2023-04-08T07:22:30;100241.72;;;8.06;100.00
24858;BME280;12935;50.782;6.074;2023-04-08T07:24:55;100252.91;;;8.21;100.00
24858;BME280;12935;50.782;6.074;2023-04-08T07:27:20;100255.91;;;8.35;100.00
24858;BME280;12935;50.782;6.074;2023-04-08T07:29:46;100266.31;;;8.29;100.00
24858;BME280;12935;50.782;6.074;2023-04-08T07:32:11;100261.66;;;8.30;100.00
24858;BME280;12935;50.782;6.074;2023-04-08T07:34:36;100265.81;;;8.43;100.00
24858;BME280;12935;50.782;6.074;2023-04-08T07:37:02;100265.25;;;8.34;100.00
24858;BME280;12935;50.782;6.074;2023-04-08T07:39:27;100267.31;;;8.40;100.00
24858;BME280;12935;50.782;6.074;2023-04-08T07:41:52;100261.66;;;8.49;100.00
24858;BME280;12935;50.782;6.074;2023-04-08T07:44:18;100266.00;;;8.54;100.00
24858;BME280;12935;50.782;6.074;2023-04-08T07:46:44;100271.81;;;8.52;100.00
24858;BME280;12935;50.782;6.074;2023-04-08T07:49:10;100268.81;;;8.57;100.00
24858;BME280;12935;50.782;6.074;2023-04-08T07:51:36;100276.75;;;8.66;100.00
24858;BME280;12935;50.782;6.074;2023-04-08T07:54:01;100277.91;;;8.65;100.00
24858;BME280;12935;50.782;6.074;2023-04-08T07:56:26;100281.97;;;8.74;100.00
24858;BME280;12935;50.782;6.074;2023-04-08T07:58:51;100289.97;;;8.64;100.00
24858;BME280;12935;50.782;6.074;2023-04-08T08:01:19;100279.97;;;8.71;100.00
24858;BME280;12935;50.782;6.074;2023-04-08T08:03:46;100283.28;;;8.84;100.00
24858;BME280;12935;50.782;6.074;2023-04-08T08:06:12;100293.63;;;8.94;100.00
24858;BME280;12935;50.782;6.074;2023-04-08T08:08:37;100293.44;;;9.06;100.00
24858;BME280;12935;50.782;6.074;2023-04-08T08:11:03;100292.38;;;9.14;100.00
24858;BME280;12935;50.782;6.074;2023-04-08T08:13:28;100298.16;;;9.09;100.00
24858;BME280;12935;50.782;6.074;2023-04-08T08:15:53;100288.84;;;9.10;100.00
24858;BME280;12935;50.782;6.074;2023-04-08T08:18:19;100292.72;;;9.09;100.00
24858;BME280;12935;50.782;6.074;2023-04-08T08:20:44;100294.75;;;9.16;100.00
24858;BME280;12935;50.782;6.074;2023-04-08T08:23:10;100295.97;;;9.19;100.00
24858;BME280;12935;50.782;6.074;2023-04-08T08:25:35;100304.09;;;9.15;100.00
24858;BME280;12935;50.782;6.074;2023-04-08T08:28:00;100300.28;;;9.20;100.00
24858;BME280;12935;50.782;6.074;2023-04-08T08:30:26;100300.06;;;9.32;100.00
24858;BME280;12935;50.782;6.074;2023-04-08T08:32:51;100301.06;;;9.20;100.00
24858;BME280;12935;50.782;6.074;2023-04-08T08:35:17;100298.72;;;9.45;100.00
24858;BME280;12935;50.782;6.074;2023-04-08T08:37:42;100311.91;;;9.66;100.00
24858;BME280;12935;50.782;6.074;2023-04-08T08:40:08;100304.38;;;9.33;100.00
24858;BME280;12935;50.782;6.074;2023-04-08T08:42:33;100314.44;;;9.29;100.00
24858;BME280;12935;50.782;6.074;2023-04-08T08:45:01;100318.81;;;9.33;100.00
24858;BME280;12935;50.782;6.074;2023-04-08T08:47:26;100325.13;;;9.64;100.00
24858;BME280;12935;50.782;6.074;2023-04-08T08:49:51;100321.00;;;9.73;100.00
24858;BME280;12935;50.782;6.074;2023-04-08T08:52:17;100328.50;;;9.80;100.00
24858;BME280;12935;50.782;6.074;2023-04-08T08:54:44;100331.22;;;9.80;100.00
24858;BME280;12935;50.782;6.074;2023-04-08T08:57:16;100325.38;;;9.81;100.00
24858;BME280;12935;50.782;6.074;2023-04-08T08:59:47;100332.56;;;9.93;100.00
24858;BME280;12935;50.782;6.074;2023-04-08T09:02:27;100334.22;;;9.71;100.00
24858;BME280;12935;50.782;6.074;2023-04-08T09:05:02;100326.91;;;10.05;100.00
24858;BME280;12935;50.782;6.074;2023-04-08T09:07:29;100335.66;;;10.18;100.00
24858;BME280;12935;50.782;6.074;2023-04-08T09:09:57;100328.22;;;10.45;100.00
24858;BME280;12935;50.782;6.074;2023-04-08T09:12:23;100337.28;;;10.52;100.00
24858;BME280;12935;50.782;6.074;2023-04-08T09:14:49;100336.00;;;10.43;100.00
24858;BME280;12935;50.782;6.074;2023-04-08T09:17:15;100334.22;;;10.58;100.00
24858;BME280;12935;50.782;6.074;2023-04-08T09:25:24;100334.03;;;11.62;100.00
24858;BME280;12935;50.782;6.074;2023-04-08T09:27:50;100340.19;;;11.48;100.00
24858;BME280;12935;50.782;6.074;2023-04-08T09:30:17;100335.78;;;11.33;100.00
24858;BME280;12935;50.782;6.074;2023-04-08T09:32:50;100340.31;;;11.62;100.00
24858;BME280;12935;50.782;6.074;2023-04-08T09:35:17;100342.84;;;11.88;100.00
24858;BME280;12935;50.782;6.074;2023-04-08T09:37:42;100343.88;;;11.22;100.00
24858;BME280;12935;50.782;6.074;2023-04-08T09:40:08;100346.59;;;11.22;100.00
24858;BME280;12935;50.782;6.074;2023-04-08T09:42:36;100347.00;;;11.24;100.00
24858;BME280;12935;50.782;6.074;2023-04-08T09:45:04;100340.16;;;11.44;100.00
24858;BME280;12935;50.782;6.074;2023-04-08T09:47:38;100346.31;;;11.78;100.00
24858;BME280;12935;50.782;6.074;2023-04-08T09:50:07;100362.16;;;12.13;100.00
24858;BME280;12935;50.782;6.074;2023-04-08T09:52:38;100357.53;;;12.21;100.00
24858;BME280;12935;50.782;6.074;2023-04-08T09:55:08;100340.28;;;12.17;100.00
24858;BME280;12935;50.782;6.074;2023-04-08T10:00:11;100356.28;;;13.12;100.00
24858;BME280;12935;50.782;6.074;2023-04-08T10:03:12;100359.47;;;13.46;100.00
24858;BME280;12935;50.782;6.074;2023-04-08T10:05:43;100349.66;;;13.45;100.00
24858;BME280;12935;50.782;6.074;2023-04-08T10:08:09;100358.31;;;13.47;100.00
24858;BME280;12935;50.782;6.074;2023-04-08T10:10:38;100355.06;;;14.20;100.00
24858;BME280;12935;50.782;6.074;2023-04-08T10:13:05;100354.63;;;14.35;100.00
24858;BME280;12935;50.782;6.074;2023-04-08T10:15:32;100351.63;;;13.27;100.00
24858;BME280;12935;50.782;6.074;2023-04-08T10:25:45;100356.72;;;13.75;100.00
24858;BME280;12935;50.782;6.074;2023-04-08T10:33:21;100346.44;;;12.86;100.00
24858;BME280;12935;50.782;6.074;2023-04-08T10:35:58;100341.72;;;12.94;97.44
24858;BME280;12935;50.782;6.074;2023-04-08T10:38:23;100330.38;;;12.88;96.60
24858;BME280;12935;50.782;6.074;2023-04-08T10:40:49;100336.31;;;13.19;100.00
24858;BME280;12935;50.782;6.074;2023-04-08T10:43:16;100335.94;;;13.66;99.09
24858;BME280;12935;50.782;6.074;2023-04-08T10:45:43;100346.50;;;13.89;98.94
24858;BME280;12935;50.782;6.074;2023-04-08T10:48:30;100340.50;;;14.41;96.07
24858;BME280;12935;50.782;6.074;2023-04-08T10:50:57;100329.53;;;14.23;93.38
24858;BME280;12935;50.782;6.074;2023-04-08T10:53:34;100341.75;;;14.15;88.68
24858;BME280;12935;50.782;6.074;2023-04-08T10:56:09;100335.53;;;13.29;87.58
24858;BME280;12935;50.782;6.074;2023-04-08T10:58:53;100327.25;;;13.86;91.21
24858;BME280;12935;50.782;6.074;2023-04-08T11:01:22;100326.72;;;14.48;90.07
24858;BME280;12935;50.782;6.074;2023-04-08T11:03:47;100328.69;;;14.36;84.13
24858;BME280;12935;50.782;6.074;2023-04-08T11:06:13;100335.75;;;14.34;85.24
24858;BME280;12935;50.782;6.074;2023-04-08T11:08:39;100334.28;;;14.12;81.14
24858;BME280;12935;50.782;6.074;2023-04-08T11:11:05;100330.41;;;13.70;80.26
24858;BME280;12935;50.782;6.074;2023-04-08T11:13:36;100330.44;;;13.38;81.92
24858;BME280;12935;50.782;6.074;2023-04-08T11:16:03;100328.09;;;13.29;84.81
24858;BME280;12935;50.782;6.074;2023-04-08T11:18:30;100331.22;;;13.42;85.13
24858;BME280;12935;50.782;6.074;2023-04-08T11:20:56;100331.19;;;13.10;84.59
24858;BME280;12935;50.782;6.074;2023-04-08T11:23:23;100331.13;;;12.92;85.96
24858;BME280;12935;50.782;6.074;2023-04-08T11:25:49;100333.16;;;13.06;86.25
24858;BME280;12935;50.782;6.074;2023-04-08T11:28:16;100328.88;;;13.30;86.82
24858;BME280;12935;50.782;6.074;2023-04-08T11:30:42;100323.00;;;13.67;86.45
24858;BME280;12935;50.782;6.074;2023-04-08T11:33:08;100329.63;;;13.80;86.14
24858;BME280;12935;50.782;6.074;2023-04-08T11:35:39;100320.91;;;14.17;84.15
24858;BME280;12935;50.782;6.074;2023-04-08T11:38:04;100320.50;;;14.22;80.13
24858;BME280;12935;50.782;6.074;2023-04-08T11:40:29;100323.38;;;13.55;78.90
24858;BME280;12935;50.782;6.074;2023-04-08T11:42:55;100327.25;;;13.93;81.03
24858;BME280;12935;50.782;6.074;2023-04-08T11:45:20;100323.22;;;14.40;78.08
24858;BME280;12935;50.782;6.074;2023-04-08T11:47:47;100329.09;;;14.42;78.93
24858;BME280;12935;50.782;6.074;2023-04-08T11:50:21;100327.88;;;14.54;77.59
24858;BME280;12935;50.782;6.074;2023-04-08T11:52:51;100329.06;;;14.49;77.62
24858;BME280;12935;50.782;6.074;2023-04-08T11:55:35;100340.63;;;13.77;73.48
24858;BME280;12935;50.782;6.074;2023-04-08T11:58:03;100329.25;;;13.71;76.70
24858;BME280;12935;50.782;6.074;2023-04-08T12:00:28;100318.97;;;14.07;78.28
24858;BME280;12935;50.782;6.074;2023-04-08T12:02:53;100318.34;;;14.69;76.97
24858;BME280;12935;50.782;6.074;2023-04-08T12:05:19;100322.72;;;14.63;73.36
24858;BME280;12935;50.782;6.074;2023-04-08T12:07:45;100325.28;;;13.93;74.58
24858;BME280;12935;50.782;6.074;2023-04-08T12:10:10;100324.56;;;13.64;74.64
24858;BME280;12935;50.782;6.074;2023-04-08T12:12:37;100319.06;;;13.57;73.93
24858;BME280;12935;50.782;6.074;2023-04-08T12:15:02;100325.31;;;13.12;72.44
24858;BME280;12935;50.782;6.074;2023-04-08T12:17:28;100314.38;;;13.29;73.96
24858;BME280;12935;50.782;6.074;2023-04-08T12:19:53;100309.59;;;13.90;73.34
24858;BME280;12935;50.782;6.074;2023-04-08T12:22:18;100312.53;;;14.60;70.27
24858;BME280;12935;50.782;6.074;2023-04-08T12:24:44;100312.41;;;15.33;68.50
24858;BME280;12935;50.782;6.074;2023-04-08T12:27:09;100315.84;;;16.26;68.81
24858;BME280;12935;50.782;6.074;2023-04-08T12:29:34;100300.88;;;17.15;59.64
24858;BME280;12935;50.782;6.074;2023-04-08T12:32:00;100309.19;;;16.54;59.64
24858;BME280;12935;50.782;6.074;2023-04-08T12:34:26;100315.59;;;15.76;61.04
24858;BME280;12935;50.782;6.074;2023-04-08T12:36:51;100306.25;;;15.18;61.36
24858;BME280;12935;50.782;6.074;2023-04-08T12:39:17;100316.03;;;16.08;63.08
24858;BME280;12935;50.782;6.074;2023-04-08T12:41:42;100314.88;;;15.72;61.10
24858;BME280;12935;50.782;6.074;2023-04-08T12:44:07;100322.25;;;16.20;61.43
24858;BME280;12935;50.782;6.074;2023-04-08T12:46:32;100306.13;;;15.77;61.39
24858;BME280;12935;50.782;6.074;2023-04-08T12:48:58;100315.31;;;15.63;64.07
24858;BME280;12935;50.782;6.074;2023-04-08T12:51:23;100312.13;;;16.06;64.17
24858;BME280;12935;50.782;6.074;2023-04-08T12:53:50;100308.97;;;17.26;61.00
24858;BME280;12935;50.782;6.074;2023-04-08T12:56:15;100321.53;;;17.53;59.94
24858;BME280;12935;50.782;6.074;2023-04-08T12:58:41;100303.50;;;17.22;59.20
24858;BME280;12935;50.782;6.074;2023-04-08T13:01:06;100305.03;;;16.39;60.57
24858;BME280;12935;50.782;6.074;2023-04-08T13:03:31;100307.84;;;16.05;60.57
24858;BME280;12935;50.782;6.074;2023-04-08T13:05:56;100307.84;;;15.12;63.45
24858;BME280;12935;50.782;6.074;2023-04-08T13:08:23;100310.25;;;15.10;65.25